Lake Charles Pilot — WCU5924 — position and weather

sailwx.info

Track history (hours):
 
Tides and Currents Weather Stations Pressure Air Temp Water Temp Dewpoint Dewpoint Depression Visibility Wind Speed Wind Dir Waves Ship Positions

Lake Charles Pilot

Owner: CALCASIEU PILOT NO 3 INC, LAKE CHARLES, LA. More information available from US FCC via Universal Licensing System and Coast Guard Vessel Documentation Center.

Last reported at 2018-May-16 20:59 UTC. Time now 2018-May-25 01:27 UTC.
Position N 29°41' W 093°20'.
Warning: this ship's position is 8 days out of date.

Date/timePositionNaut miles runAvg speedWind from/ knotsBaromVisibWave heightAir tempDewpointWater temp
2018-May-16 20:59N 29°41' W 093°20'5 0.7
2018-May-16 13:23N 29°47' W 093°21'1 3.5
2018-May-16 13:01N 29°45' W 093°21'5 9.9
2018-May-16 12:29N 29°40' W 093°20'5 9.9
2018-May-16 12:01N 29°45' W 093°20'2 0.3
2018-May-16 06:07N 29°47' W 093°21'1 9.8
2018-May-16 05:59N 29°45' W 093°21'917.9
2018-May-16 05:30N 29°37' W 093°19'5 9.9
2018-May-16 05:00N 29°41' W 093°20'510.3
2018-May-16 04:30N 29°47' W 093°21'1 0.1
2018-May-15 15:21N 29°47' W 093°21'3 3.9
2018-May-15 14:43N 29°45' W 093°21'523.2
2018-May-15 14:31N 29°40' W 093°19'713.4
2018-May-15 14:00N 29°34' W 093°16'611.8
2018-May-15 13:30N 29°39' W 093°20'712.4
2018-May-15 12:55N 29°46' W 093°21'0 0.8
2018-May-15 12:30N 29°47' W 093°21'0 0.0
2018-May-15 10:25N 29°47' W 093°21'921.6
2018-May-15 10:00N 29°38' W 093°18'3 5.5
2018-May-15 09:25N 29°35' W 093°17'410.6
2018-May-15 09:00N 29°39' W 093°19'5 9.3
2018-May-15 08:30N 29°43' W 093°20'3 2.4
2018-May-15 07:12N 29°47' W 093°21'317.2
2018-May-15 07:00N 29°43' W 093°20'1 1.2
2018-May-15 06:23N 29°44' W 093°20'  
2018-May-10 10:37N 29°47' W 093°20'1 0.0
2018-May-09 01:59N 29°47' W 093°21'919.8
2018-May-09 01:30N 29°38' W 093°17'713.3
2018-May-09 00:58N 29°31' W 093°14'510.8
2018-May-09 00:29N 29°35' W 093°17'3 7.2
2018-May-09 00:00N 29°39' W 093°19'815.7
2018-May-08 23:29N 29°46' W 093°21'0 0.0
2018-May-08 07:12N 29°46' W 093°21'418.3
2018-May-08 07:01N 29°43' W 093°20'3 5.6
2018-May-08 06:31N 29°45' W 093°21'1 0.1
2018-May-07 05:48N 29°47' W 093°21'516.4
2018-May-07 05:30N 29°42' W 093°20'1 1.3
2018-May-07 05:00N 29°41' W 093°19'510.8
2018-May-07 04:30N 29°47' W 093°21'  
Track history (hours):
 
Tides and Currents Weather Stations Pressure Air Temp Water Temp Dewpoint Dewpoint Depression Visibility Wind Speed Wind Dir Waves Ship Positions

Lake Charles Pilot

Owner: CALCASIEU PILOT NO 3 INC, LAKE CHARLES, LA. More information available from US FCC via Universal Licensing System and Coast Guard Vessel Documentation Center.

Last reported at 2018-May-16 20:59 UTC. Time now 2018-May-25 01:27 UTC.
Position N 29°41' W 093°20'.
Warning: this ship's position is 8 days out of date.

Date/timePositionNaut miles runAvg speedWind from/ knotsBaromVisibWave heightAir tempDewpointWater temp
2018-May-16 20:59N 29°41' W 093°20'5 0.7
2018-May-16 13:23N 29°47' W 093°21'1 3.5
2018-May-16 13:01N 29°45' W 093°21'5 9.9
2018-May-16 12:29N 29°40' W 093°20'5 9.9
2018-May-16 12:01N 29°45' W 093°20'2 0.3
2018-May-16 06:07N 29°47' W 093°21'1 9.8
2018-May-16 05:59N 29°45' W 093°21'917.9
2018-May-16 05:30N 29°37' W 093°19'5 9.9
2018-May-16 05:00N 29°41' W 093°20'510.3
2018-May-16 04:30N 29°47' W 093°21'1 0.1
2018-May-15 15:21N 29°47' W 093°21'3 3.9
2018-May-15 14:43N 29°45' W 093°21'523.2
2018-May-15 14:31N 29°40' W 093°19'713.4
2018-May-15 14:00N 29°34' W 093°16'611.8
2018-May-15 13:30N 29°39' W 093°20'712.4
2018-May-15 12:55N 29°46' W 093°21'0 0.8
2018-May-15 12:30N 29°47' W 093°21'0 0.0
2018-May-15 10:25N 29°47' W 093°21'921.6
2018-May-15 10:00N 29°38' W 093°18'3 5.5
2018-May-15 09:25N 29°35' W 093°17'410.6
2018-May-15 09:00N 29°39' W 093°19'5 9.3
2018-May-15 08:30N 29°43' W 093°20'3 2.4
2018-May-15 07:12N 29°47' W 093°21'317.2
2018-May-15 07:00N 29°43' W 093°20'1 1.2
2018-May-15 06:23N 29°44' W 093°20'  
2018-May-10 10:37N 29°47' W 093°20'1 0.0
2018-May-09 01:59N 29°47' W 093°21'919.8
2018-May-09 01:30N 29°38' W 093°17'713.3
2018-May-09 00:58N 29°31' W 093°14'510.8
2018-May-09 00:29N 29°35' W 093°17'3 7.2
2018-May-09 00:00N 29°39' W 093°19'815.7
2018-May-08 23:29N 29°46' W 093°21'0 0.0
2018-May-08 07:12N 29°46' W 093°21'418.3
2018-May-08 07:01N 29°43' W 093°20'3 5.6
2018-May-08 06:31N 29°45' W 093°21'1 0.1
2018-May-07 05:48N 29°47' W 093°21'516.4
2018-May-07 05:30N 29°42' W 093°20'1 1.3
2018-May-07 05:00N 29°41' W 093°19'510.8
2018-May-07 04:30N 29°47' W 093°21'  

Dump ship's entire track history